sensor_id;sensor_type;location;lat;lon;timestamp;pressure;altitude;pressure_sealevel;temperature;humidity
79686;BME280;69153;47.918;11.428;2024-02-16T00:00:17;95076.13;;;6.19;55.13
79686;BME280;69153;47.918;11.428;2024-02-16T00:02:44;95070.50;;;6.17;55.42
79686;BME280;69153;47.918;11.428;2024-02-16T00:05:11;95070.50;;;6.21;54.65
79686;BME280;69153;47.918;11.428;2024-02-16T00:07:38;95061.09;;;6.20;54.93
79686;BME280;69153;47.918;11.428;2024-02-16T00:10:05;95058.47;;;6.20;55.32
79686;BME280;69153;47.918;11.428;2024-02-16T00:12:32;95057.69;;;6.23;54.78
79686;BME280;69153;47.918;11.428;2024-02-16T00:14:58;95062.97;;;6.23;54.95
79686;BME280;69153;47.918;11.428;2024-02-16T00:17:24;95055.47;;;6.21;55.34
79686;BME280;69153;47.918;11.428;2024-02-16T00:19:52;95056.94;;;6.22;54.99
79686;BME280;69153;47.918;11.428;2024-02-16T00:22:18;95053.50;;;6.25;54.87
79686;BME280;69153;47.918;11.428;2024-02-16T00:24:43;95054.72;;;6.21;55.04
79686;BME280;69153;47.918;11.428;2024-02-16T00:27:10;95044.94;;;6.21;54.71
79686;BME280;69153;47.918;11.428;2024-02-16T00:29:35;95045.72;;;6.15;54.77
79686;BME280;69153;47.918;11.428;2024-02-16T00:32:01;95043.84;;;6.15;54.83
79686;BME280;69153;47.918;11.428;2024-02-16T00:34:26;95039.34;;;6.16;54.98
79686;BME280;69153;47.918;11.428;2024-02-16T00:36:51;95040.50;;;6.11;54.76
79686;BME280;69153;47.918;11.428;2024-02-16T00:39:20;95038.75;;;5.97;55.08
79686;BME280;69153;47.918;11.428;2024-02-16T00:41:47;95044.41;;;5.96;54.77
79686;BME280;69153;47.918;11.428;2024-02-16T00:44:12;95029.78;;;5.95;54.70
79686;BME280;69153;47.918;11.428;2024-02-16T00:46:38;95035.81;;;5.85;55.18
79686;BME280;69153;47.918;11.428;2024-02-16T00:49:03;95024.97;;;5.83;55.22
79686;BME280;69153;47.918;11.428;2024-02-16T00:51:29;95026.06;;;5.85;55.08
79686;BME280;69153;47.918;11.428;2024-02-16T00:53:55;95037.31;;;5.89;55.11
79686;BME280;69153;47.918;11.428;2024-02-16T00:56:21;95036.56;;;5.92;54.47
79686;BME280;69153;47.918;11.428;2024-02-16T00:58:46;95029.41;;;5.93;54.80
79686;BME280;69153;47.918;11.428;2024-02-16T01:01:12;95036.53;;;5.96;54.87
79686;BME280;69153;47.918;11.428;2024-02-16T01:03:38;95028.66;;;5.96;54.53
79686;BME280;69153;47.918;11.428;2024-02-16T01:06:05;95033.09;;;5.99;54.79
79686;BME280;69153;47.918;11.428;2024-02-16T01:08:31;95028.19;;;6.04;54.58
79686;BME280;69153;47.918;11.428;2024-02-16T01:10:56;95028.19;;;6.01;54.81
79686;BME280;69153;47.918;11.428;2024-02-16T01:13:22;95029.06;;;5.91;54.84
79686;BME280;69153;47.918;11.428;2024-02-16T01:15:47;95028.31;;;5.87;54.89
79686;BME280;69153;47.918;11.428;2024-02-16T01:18:13;95031.31;;;5.89;54.86
79686;BME280;69153;47.918;11.428;2024-02-16T01:20:38;95026.84;;;5.82;54.90
79686;BME280;69153;47.918;11.428;2024-02-16T01:23:04;95030.56;;;5.85;55.11
79686;BME280;69153;47.918;11.428;2024-02-16T01:25:30;95027.91;;;5.92;54.88
79686;BME280;69153;47.918;11.428;2024-02-16T01:27:56;95030.56;;;5.85;55.10
79686;BME280;69153;47.918;11.428;2024-02-16T01:30:22;95023.97;;;5.69;55.75
79686;BME280;69153;47.918;11.428;2024-02-16T01:32:47;95020.94;;;5.71;55.93
79686;BME280;69153;47.918;11.428;2024-02-16T01:35:13;95029.16;;;5.73;55.89
79686;BME280;69153;47.918;11.428;2024-02-16T01:37:42;95027.66;;;5.75;56.43
79686;BME280;69153;47.918;11.428;2024-02-16T01:40:09;95021.25;;;5.80;56.28
79686;BME280;69153;47.918;11.428;2024-02-16T01:42:41;95020.47;;;5.83;56.34
79686;BME280;69153;47.918;11.428;2024-02-16T01:45:08;95018.91;;;5.86;56.15
79686;BME280;69153;47.918;11.428;2024-02-16T01:47:35;95016.66;;;5.91;56.08
79686;BME280;69153;47.918;11.428;2024-02-16T01:50:02;95028.28;;;5.94;56.03
79686;BME280;69153;47.918;11.428;2024-02-16T01:52:28;95019.56;;;6.00;55.77
79686;BME280;69153;47.918;11.428;2024-02-16T01:54:56;95014.25;;;6.07;55.59
79686;BME280;69153;47.918;11.428;2024-02-16T01:57:23;95015.03;;;6.04;56.00
79686;BME280;69153;47.918;11.428;2024-02-16T01:59:49;95015.03;;;6.04;55.80
79686;BME280;69153;47.918;11.428;2024-02-16T02:02:15;95013.50;;;6.07;56.04
79686;BME280;69153;47.918;11.428;2024-02-16T02:04:40;95016.06;;;6.14;55.81
79686;BME280;69153;47.918;11.428;2024-02-16T02:07:15;95018.28;;;6.19;55.46
79686;BME280;69153;47.918;11.428;2024-02-16T02:09:42;95015.19;;;6.24;55.23
79686;BME280;69153;47.918;11.428;2024-02-16T02:12:10;95018.19;;;6.26;55.40
79686;BME280;69153;47.918;11.428;2024-02-16T02:14:36;95011.81;;;6.24;55.30
79686;BME280;69153;47.918;11.428;2024-02-16T02:17:04;95010.69;;;6.25;55.42
79686;BME280;69153;47.918;11.428;2024-02-16T02:19:30;95008.38;;;6.30;55.43
79686;BME280;69153;47.918;11.428;2024-02-16T02:21:56;95010.25;;;6.30;55.38
79686;BME280;69153;47.918;11.428;2024-02-16T02:24:22;95007.28;;;6.28;55.49
79686;BME280;69153;47.918;11.428;2024-02-16T02:29:59;95003.91;;;6.24;55.75
79686;BME280;69153;47.918;11.428;2024-02-16T02:32:25;95006.16;;;6.25;55.67
79686;BME280;69153;47.918;11.428;2024-02-16T02:34:50;95002.34;;;6.33;55.15
79686;BME280;69153;47.918;11.428;2024-02-16T02:37:15;95011.66;;;6.38;55.29
79686;BME280;69153;47.918;11.428;2024-02-16T02:39:41;95005.59;;;6.44;54.97
79686;BME280;69153;47.918;11.428;2024-02-16T02:42:06;95000.63;;;6.50;55.11
79686;BME280;69153;47.918;11.428;2024-02-16T02:44:33;95004.00;;;6.51;55.21
79686;BME280;69153;47.918;11.428;2024-02-16T02:46:59;94995.78;;;6.49;55.20
79686;BME280;69153;47.918;11.428;2024-02-16T02:49:24;95007.47;;;6.44;55.41
79686;BME280;69153;47.918;11.428;2024-02-16T02:51:50;94993.91;;;6.49;55.46
79686;BME280;69153;47.918;11.428;2024-02-16T02:54:15;94997.56;;;6.55;55.50
79686;BME280;69153;47.918;11.428;2024-02-16T02:56:41;94996.44;;;6.56;55.33
79686;BME280;69153;47.918;11.428;2024-02-16T02:59:06;94994.50;;;6.60;54.97
79686;BME280;69153;47.918;11.428;2024-02-16T03:01:32;95002.78;;;6.59;55.24
79686;BME280;69153;47.918;11.428;2024-02-16T03:03:57;95003.94;;;6.58;55.28
79686;BME280;69153;47.918;11.428;2024-02-16T03:06:25;95009.09;;;6.65;55.15
79686;BME280;69153;47.918;11.428;2024-02-16T03:08:51;95004.50;;;6.72;54.97
79686;BME280;69153;47.918;11.428;2024-02-16T03:11:16;95011.66;;;6.72;54.72
79686;BME280;69153;47.918;11.428;2024-02-16T03:13:42;95013.94;;;6.70;55.00
79686;BME280;69153;47.918;11.428;2024-02-16T03:16:08;95020.69;;;6.71;54.75
79686;BME280;69153;47.918;11.428;2024-02-16T03:18:34;95016.56;;;6.70;55.14
79686;BME280;69153;47.918;11.428;2024-02-16T03:21:00;95019.59;;;6.68;54.94
79686;BME280;69153;47.918;11.428;2024-02-16T03:23:25;95015.13;;;6.65;55.00
79686;BME280;69153;47.918;11.428;2024-02-16T03:25:51;95017.81;;;6.62;55.40
79686;BME280;69153;47.918;11.428;2024-02-16T03:28:16;95013.72;;;6.57;55.70
79686;BME280;69153;47.918;11.428;2024-02-16T03:30:43;95019.00;;;6.54;56.05
79686;BME280;69153;47.918;11.428;2024-02-16T03:33:09;95017.09;;;6.58;56.19
79686;BME280;69153;47.918;11.428;2024-02-16T03:35:35;95023.00;;;6.65;55.82
79686;BME280;69153;47.918;11.428;2024-02-16T03:38:02;95013.53;;;6.71;55.98
79686;BME280;69153;47.918;11.428;2024-02-16T03:40:28;95024.38;;;6.77;55.78
79686;BME280;69153;47.918;11.428;2024-02-16T03:42:54;95027.84;;;6.70;55.68
79686;BME280;69153;47.918;11.428;2024-02-16T03:45:19;95028.63;;;6.67;55.69
79686;BME280;69153;47.918;11.428;2024-02-16T03:47:45;95033.50;;;6.69;55.80
79686;BME280;69153;47.918;11.428;2024-02-16T03:50:10;95028.56;;;6.74;55.64
79686;BME280;69153;47.918;11.428;2024-02-16T03:52:36;95031.25;;;6.67;55.80
79686;BME280;69153;47.918;11.428;2024-02-16T03:55:02;95033.06;;;6.74;56.15
79686;BME280;69153;47.918;11.428;2024-02-16T03:57:30;95037.53;;;6.77;55.71
79686;BME280;69153;47.918;11.428;2024-02-16T03:59:55;95037.09;;;6.82;55.65
79686;BME280;69153;47.918;11.428;2024-02-16T04:02:21;95031.09;;;6.81;55.81
79686;BME280;69153;47.918;11.428;2024-02-16T04:04:46;95037.13;;;6.78;55.75
79686;BME280;69153;47.918;11.428;2024-02-16T04:07:11;95030.00;;;6.79;55.97
79686;BME280;69153;47.918;11.428;2024-02-16T04:09:37;95040.84;;;6.85;55.73
79686;BME280;69153;47.918;11.428;2024-02-16T04:12:03;95038.16;;;6.88;56.42
79686;BME280;69153;47.918;11.428;2024-02-16T04:14:29;95036.47;;;6.74;56.57
79686;BME280;69153;47.918;11.428;2024-02-16T04:16:55;95046.19;;;6.77;56.81
79686;BME280;69153;47.918;11.428;2024-02-16T04:19:25;95050.63;;;6.84;56.70
79686;BME280;69153;47.918;11.428;2024-02-16T04:21:50;95042.69;;;6.88;57.52
79686;BME280;69153;47.918;11.428;2024-02-16T04:24:16;95048.25;;;6.93;57.52
79686;BME280;69153;47.918;11.428;2024-02-16T04:26:42;95058.75;;;6.97;58.23
79686;BME280;69153;47.918;11.428;2024-02-16T04:29:07;95062.03;;;7.04;57.42
79686;BME280;69153;47.918;11.428;2024-02-16T04:31:33;95060.84;;;7.09;57.34
79686;BME280;69153;47.918;11.428;2024-02-16T04:33:58;95058.91;;;7.13;57.09
79686;BME280;69153;47.918;11.428;2024-02-16T04:36:24;95066.06;;;7.12;57.31
79686;BME280;69153;47.918;11.428;2024-02-16T04:38:50;95067.56;;;7.13;57.23
79686;BME280;69153;47.918;11.428;2024-02-16T04:41:15;95067.50;;;7.17;57.60
79686;BME280;69153;47.918;11.428;2024-02-16T04:43:41;95068.31;;;7.14;57.53
79686;BME280;69153;47.918;11.428;2024-02-16T04:46:06;95068.72;;;7.12;57.78
79686;BME280;69153;47.918;11.428;2024-02-16T04:48:32;95066.75;;;7.16;57.33
79686;BME280;69153;47.918;11.428;2024-02-16T04:50:59;95070.50;;;7.19;57.69
79686;BME280;69153;47.918;11.428;2024-02-16T04:53:24;95075.75;;;7.19;57.76
79686;BME280;69153;47.918;11.428;2024-02-16T04:55:50;95070.06;;;7.24;58.14
79686;BME280;69153;47.918;11.428;2024-02-16T04:58:16;95072.22;;;7.29;57.74
79686;BME280;69153;47.918;11.428;2024-02-16T05:00:42;95067.81;;;7.23;58.46
79686;BME280;69153;47.918;11.428;2024-02-16T05:03:07;95074.47;;;7.31;58.08
79686;BME280;69153;47.918;11.428;2024-02-16T05:05:33;95063.94;;;7.31;58.08
79686;BME280;69153;47.918;11.428;2024-02-16T05:07:59;95064.69;;;7.31;57.87
79686;BME280;69153;47.918;11.428;2024-02-16T05:10:25;95064.69;;;7.31;56.99
79686;BME280;69153;47.918;11.428;2024-02-16T05:12:50;95064.03;;;7.24;57.34
79686;BME280;69153;47.918;11.428;2024-02-16T05:15:16;95059.56;;;7.21;57.48
79686;BME280;69153;47.918;11.428;2024-02-16T05:17:42;95073.53;;;7.17;57.03
79686;BME280;69153;47.918;11.428;2024-02-16T05:20:11;95068.34;;;7.10;57.42
79686;BME280;69153;47.918;11.428;2024-02-16T05:22:49;95072.09;;;7.13;57.57
79686;BME280;69153;47.918;11.428;2024-02-16T05:25:16;95078.03;;;7.17;57.72
79686;BME280;69153;47.918;11.428;2024-02-16T05:27:43;95072.78;;;7.17;57.82
79686;BME280;69153;47.918;11.428;2024-02-16T05:30:10;95071.25;;;7.20;57.77
79686;BME280;69153;47.918;11.428;2024-02-16T05:32:38;95062.16;;;7.24;57.75
79686;BME280;69153;47.918;11.428;2024-02-16T05:35:05;95072.22;;;7.29;57.46
79686;BME280;69153;47.918;11.428;2024-02-16T05:37:40;95080.50;;;7.31;57.23
79686;BME280;69153;47.918;11.428;2024-02-16T05:40:12;95070.69;;;7.32;57.35
79686;BME280;69153;47.918;11.428;2024-02-16T05:42:47;95070.00;;;7.28;57.67
79686;BME280;69153;47.918;11.428;2024-02-16T05:45:16;95070.84;;;7.21;57.73
79686;BME280;69153;47.918;11.428;2024-02-16T05:47:45;95061.81;;;7.22;57.84
79686;BME280;69153;47.918;11.428;2024-02-16T05:50:12;95070.06;;;7.24;57.83
79686;BME280;69153;47.918;11.428;2024-02-16T05:52:41;95069.34;;;7.20;57.83
79686;BME280;69153;47.918;11.428;2024-02-16T05:55:08;95065.22;;;7.19;57.85
79686;BME280;69153;47.918;11.428;2024-02-16T05:57:34;95068.97;;;7.22;57.86
79686;BME280;69153;47.918;11.428;2024-02-16T06:00:00;95073.47;;;7.21;58.20
79686;BME280;69153;47.918;11.428;2024-02-16T06:02:26;95074.19;;;7.25;58.34
79686;BME280;69153;47.918;11.428;2024-02-16T06:04:53;95077.09;;;7.31;58.04
79686;BME280;69153;47.918;11.428;2024-02-16T06:07:19;95077.91;;;7.28;57.93
79686;BME280;69153;47.918;11.428;2024-02-16T06:09:44;95072.16;;;7.36;57.92
79686;BME280;69153;47.918;11.428;2024-02-16T06:12:09;95080.03;;;7.40;58.03
79686;BME280;69153;47.918;11.428;2024-02-16T06:14:36;95078.84;;;7.41;57.56
79686;BME280;69153;47.918;11.428;2024-02-16T06:17:03;95089.34;;;7.44;57.86
79686;BME280;69153;47.918;11.428;2024-02-16T06:19:29;95086.00;;;7.40;58.02
79686;BME280;69153;47.918;11.428;2024-02-16T06:21:54;95088.59;;;7.44;57.83
79686;BME280;69153;47.918;11.428;2024-02-16T06:24:22;95095.75;;;7.43;57.85
79686;BME280;69153;47.918;11.428;2024-02-16T06:26:48;95101.03;;;7.43;57.81
79686;BME280;69153;47.918;11.428;2024-02-16T06:29:13;95101.31;;;7.52;57.98
79686;BME280;69153;47.918;11.428;2024-02-16T06:31:39;95093.28;;;7.60;58.06
79686;BME280;69153;47.918;11.428;2024-02-16T06:34:04;95104.13;;;7.65;57.64
79686;BME280;69153;47.918;11.428;2024-02-16T06:36:30;95105.91;;;7.72;57.84
79686;BME280;69153;47.918;11.428;2024-02-16T06:38:55;95120.47;;;7.80;57.54
79686;BME280;69153;47.918;11.428;2024-02-16T06:41:21;95114.44;;;7.79;57.75
79686;BME280;69153;47.918;11.428;2024-02-16T06:43:46;95122.66;;;7.85;57.58
79686;BME280;69153;47.918;11.428;2024-02-16T06:46:12;95128.88;;;7.98;57.19
79686;BME280;69153;47.918;11.428;2024-02-16T06:48:37;95134.22;;;8.18;56.71
79686;BME280;69153;47.918;11.428;2024-02-16T06:51:02;95137.28;;;8.40;55.90
79686;BME280;69153;47.918;11.428;2024-02-16T06:53:28;95132.91;;;8.30;56.71
79686;BME280;69153;47.918;11.428;2024-02-16T06:55:53;95134.63;;;8.16;56.99
79686;BME280;69153;47.918;11.428;2024-02-16T06:58:20;95149.03;;;8.12;57.64
79686;BME280;69153;47.918;11.428;2024-02-16T07:00:45;95145.94;;;8.17;57.43
79686;BME280;69153;47.918;11.428;2024-02-16T07:03:10;95155.22;;;8.25;57.52
79686;BME280;69153;47.918;11.428;2024-02-16T07:05:36;95160.81;;;8.31;57.03
79686;BME280;69153;47.918;11.428;2024-02-16T07:08:01;95158.16;;;8.31;57.10
79686;BME280;69153;47.918;11.428;2024-02-16T07:10:27;95168.72;;;8.31;56.87
79686;BME280;69153;47.918;11.428;2024-02-16T07:12:52;95170.41;;;8.44;57.16
79686;BME280;69153;47.918;11.428;2024-02-16T07:15:18;95172.38;;;8.83;56.13
79686;BME280;69153;47.918;11.428;2024-02-16T07:17:43;95175.50;;;9.57;54.22
79686;BME280;69153;47.918;11.428;2024-02-16T07:20:10;95172.66;;;10.00;53.26
79686;BME280;69153;47.918;11.428;2024-02-16T07:22:35;95174.97;;;10.15;52.34
79686;BME280;69153;47.918;11.428;2024-02-16T07:25:01;95168.22;;;9.97;52.50
79686;BME280;69153;47.918;11.428;2024-02-16T07:27:26;95174.25;;;9.62;53.42
79686;BME280;69153;47.918;11.428;2024-02-16T07:29:52;95163.97;;;9.48;53.66
79686;BME280;69153;47.918;11.428;2024-02-16T07:32:18;95170.50;;;9.43;54.14
79686;BME280;69153;47.918;11.428;2024-02-16T07:34:47;95172.03;;;9.41;54.03
79686;BME280;69153;47.918;11.428;2024-02-16T07:37:13;95173.59;;;9.38;54.11
79686;BME280;69153;47.918;11.428;2024-02-16T07:39:38;95176.66;;;9.37;54.41
79686;BME280;69153;47.918;11.428;2024-02-16T07:42:04;95185.00;;;9.35;54.56
79686;BME280;69153;47.918;11.428;2024-02-16T07:44:30;95189.28;;;9.29;55.11
79686;BME280;69153;47.918;11.428;2024-02-16T07:46:55;95181.41;;;9.45;54.84
79686;BME280;69153;47.918;11.428;2024-02-16T07:49:21;95176.66;;;9.56;54.59
79686;BME280;69153;47.918;11.428;2024-02-16T07:51:47;95183.78;;;9.59;54.69
79686;BME280;69153;47.918;11.428;2024-02-16T07:54:12;95190.06;;;9.65;54.58
79686;BME280;69153;47.918;11.428;2024-02-16T07:56:39;95192.44;;;9.60;54.98
79686;BME280;69153;47.918;11.428;2024-02-16T07:59:04;95194.53;;;9.68;55.30
79686;BME280;69153;47.918;11.428;2024-02-16T08:01:30;95196.13;;;9.82;55.04
79686;BME280;69153;47.918;11.428;2024-02-16T08:03:55;95193.31;;;9.89;54.41
79686;BME280;69153;47.918;11.428;2024-02-16T08:06:25;95196.47;;;9.84;54.19
79686;BME280;69153;47.918;11.428;2024-02-16T08:08:50;95196.31;;;9.55;55.00
79686;BME280;69153;47.918;11.428;2024-02-16T08:11:16;95199.28;;;9.38;55.86
79686;BME280;69153;47.918;11.428;2024-02-16T08:13:41;95200.84;;;9.35;56.04
79686;BME280;69153;47.918;11.428;2024-02-16T08:16:07;95195.69;;;9.48;55.51
79686;BME280;69153;47.918;11.428;2024-02-16T08:18:33;95193.63;;;9.75;54.50
79686;BME280;69153;47.918;11.428;2024-02-16T08:20:59;95205.78;;;10.09;53.70
79686;BME280;69153;47.918;11.428;2024-02-16T08:23:24;95197.69;;;10.64;52.27
79686;BME280;69153;47.918;11.428;2024-02-16T08:25:50;95196.16;;;10.80;51.65
79686;BME280;69153;47.918;11.428;2024-02-16T08:28:15;95202.31;;;10.77;51.57
79686;BME280;69153;47.918;11.428;2024-02-16T08:30:41;95192.03;;;10.79;51.74
79686;BME280;69153;47.918;11.428;2024-02-16T08:33:12;95192.41;;;11.22;50.09
79686;BME280;69153;47.918;11.428;2024-02-16T08:35:40;95194.97;;;11.67;48.88
79686;BME280;69153;47.918;11.428;2024-02-16T08:38:06;95200.06;;;11.62;48.66
79686;BME280;69153;47.918;11.428;2024-02-16T08:40:35;95195.19;;;12.49;47.05
79686;BME280;69153;47.918;11.428;2024-02-16T08:43:01;95196.84;;;13.03;45.25
79686;BME280;69153;47.918;11.428;2024-02-16T08:45:28;95201.75;;;13.04;45.75
79686;BME280;69153;47.918;11.428;2024-02-16T08:47:53;95199.72;;;13.08;44.97
79686;BME280;69153;47.918;11.428;2024-02-16T08:50:19;95200.88;;;13.07;44.68
79686;BME280;69153;47.918;11.428;2024-02-16T08:52:44;95197.28;;;13.01;44.94
79686;BME280;69153;47.918;11.428;2024-02-16T08:55:11;95198.75;;;13.15;44.81
79686;BME280;69153;47.918;11.428;2024-02-16T08:57:37;95193.09;;;14.68;41.63
79686;BME280;69153;47.918;11.428;2024-02-16T09:00:03;95201.72;;;14.31;41.94
79686;BME280;69153;47.918;11.428;2024-02-16T09:02:29;95188.06;;;13.80;42.85
79686;BME280;69153;47.918;11.428;2024-02-16T09:04:54;95193.91;;;13.97;42.68
79686;BME280;69153;47.918;11.428;2024-02-16T09:07:19;95192.88;;;14.04;42.56
79686;BME280;69153;47.918;11.428;2024-02-16T09:09:45;95191.06;;;14.90;40.73
79686;BME280;69153;47.918;11.428;2024-02-16T09:12:11;95193.88;;;14.86;40.57
79686;BME280;69153;47.918;11.428;2024-02-16T09:14:36;95195.50;;;14.75;40.92
79686;BME280;69153;47.918;11.428;2024-02-16T09:17:02;95196.06;;;14.70;41.07
79686;BME280;69153;47.918;11.428;2024-02-16T09:19:27;95201.25;;;14.64;41.09
79686;BME280;69153;47.918;11.428;2024-02-16T09:21:53;95195.31;;;14.69;41.35
79686;BME280;69153;47.918;11.428;2024-02-16T09:24:20;95196.22;;;14.75;42.38
79686;BME280;69153;47.918;11.428;2024-02-16T09:26:45;95200.66;;;14.60;43.17
79686;BME280;69153;47.918;11.428;2024-02-16T09:29:13;95200.94;;;14.53;42.56
79686;BME280;69153;47.918;11.428;2024-02-16T09:31:40;95202.31;;;14.76;41.84
79686;BME280;69153;47.918;11.428;2024-02-16T09:34:05;95197.72;;;17.82;37.07
79686;BME280;69153;47.918;11.428;2024-02-16T09:36:31;95200.38;;;20.79;31.63
79686;BME280;69153;47.918;11.428;2024-02-16T09:38:57;95195.50;;;23.29;27.38
79686;BME280;69153;47.918;11.428;2024-02-16T09:41:22;95198.75;;;24.58;25.70
79686;BME280;69153;47.918;11.428;2024-02-16T09:43:48;95191.91;;;25.19;24.40
79686;BME280;69153;47.918;11.428;2024-02-16T09:46:15;95194.13;;;25.77;23.07
79686;BME280;69153;47.918;11.428;2024-02-16T09:48:40;95195.06;;;26.11;23.19
79686;BME280;69153;47.918;11.428;2024-02-16T09:51:09;95195.06;;;26.83;21.80
79686;BME280;69153;47.918;11.428;2024-02-16T09:53:34;95183.84;;;27.26;21.68
79686;BME280;69153;47.918;11.428;2024-02-16T09:56:00;95183.16;;;27.80;20.79
79686;BME280;69153;47.918;11.428;2024-02-16T09:58:26;95184.81;;;27.62;20.83
79686;BME280;69153;47.918;11.428;2024-02-16T10:00:54;95185.06;;;28.55;20.63
79686;BME280;69153;47.918;11.428;2024-02-16T10:03:28;95188.34;;;29.26;19.69
79686;BME280;69153;47.918;11.428;2024-02-16T10:06:07;95177.56;;;29.12;19.05
79686;BME280;69153;47.918;11.428;2024-02-16T10:08:34;95198.72;;;28.34;20.03
79686;BME280;69153;47.918;11.428;2024-02-16T10:11:01;95191.28;;;29.28;19.10
79686;BME280;69153;47.918;11.428;2024-02-16T10:13:27;95188.00;;;28.86;18.90
79686;BME280;69153;47.918;11.428;2024-02-16T10:16:04;95194.72;;;27.39;20.42
79686;BME280;69153;47.918;11.428;2024-02-16T10:18:29;95186.09;;;26.61;21.04
79686;BME280;69153;47.918;11.428;2024-02-16T10:20:55;95187.75;;;27.64;20.19
79686;BME280;69153;47.918;11.428;2024-02-16T10:23:20;95188.91;;;28.88;18.96
79686;BME280;69153;47.918;11.428;2024-02-16T10:25:46;95181.31;;;28.66;18.94
79686;BME280;69153;47.918;11.428;2024-02-16T10:28:11;95182.75;;;30.36;17.45
79686;BME280;69153;47.918;11.428;2024-02-16T10:30:41;95181.91;;;31.51;17.02
79686;BME280;69153;47.918;11.428;2024-02-16T10:33:08;95176.09;;;32.54;15.93
79686;BME280;69153;47.918;11.428;2024-02-16T10:35:37;95178.97;;;32.39;16.10
79686;BME280;69153;47.918;11.428;2024-02-16T10:38:06;95171.59;;;30.72;17.21
79686;BME280;69153;47.918;11.428;2024-02-16T10:40:39;95175.75;;;29.74;18.11
79686;BME280;69153;47.918;11.428;2024-02-16T10:43:05;95176.66;;;28.25;18.86
79686;BME280;69153;47.918;11.428;2024-02-16T10:45:34;95177.00;;;28.78;18.83
79686;BME280;69153;47.918;11.428;2024-02-16T10:48:01;95178.91;;;28.62;18.58
79686;BME280;69153;47.918;11.428;2024-02-16T10:50:27;95179.13;;;28.93;18.36
79686;BME280;69153;47.918;11.428;2024-02-16T10:52:57;95181.97;;;30.81;16.10
79686;BME280;69153;47.918;11.428;2024-02-16T10:55:24;95169.19;;;32.88;14.84
79686;BME280;69153;47.918;11.428;2024-02-16T10:57:50;95166.16;;;33.72;13.04
79686;BME280;69153;47.918;11.428;2024-02-16T11:00:15;95175.69;;;33.44;13.20
79686;BME280;69153;47.918;11.428;2024-02-16T11:02:56;95177.94;;;33.82;12.88
79686;BME280;69153;47.918;11.428;2024-02-16T11:08:00;95165.19;;;32.64;12.91
79686;BME280;69153;47.918;11.428;2024-02-16T11:10:26;95164.31;;;32.44;13.66
79686;BME280;69153;47.918;11.428;2024-02-16T11:12:53;95162.72;;;32.93;13.33
79686;BME280;69153;47.918;11.428;2024-02-16T11:15:28;95151.34;;;30.52;14.74
79686;BME280;69153;47.918;11.428;2024-02-16T11:18:00;95157.97;;;31.84;14.49
79686;BME280;69153;47.918;11.428;2024-02-16T11:20:26;95149.16;;;31.93;13.78
79686;BME280;69153;47.918;11.428;2024-02-16T11:22:52;95155.22;;;30.57;14.97
79686;BME280;69153;47.918;11.428;2024-02-16T11:25:31;95149.41;;;29.99;15.52
79686;BME280;69153;47.918;11.428;2024-02-16T11:27:57;95144.78;;;28.69;17.16
79686;BME280;69153;47.918;11.428;2024-02-16T11:30:23;95149.03;;;30.64;15.85
79686;BME280;69153;47.918;11.428;2024-02-16T11:32:51;95135.94;;;32.00;14.54
79686;BME280;69153;47.918;11.428;2024-02-16T11:35:17;95134.69;;;32.43;14.38
79686;BME280;69153;47.918;11.428;2024-02-16T11:37:43;95144.94;;;32.42;15.15
79686;BME280;69153;47.918;11.428;2024-02-16T11:40:11;95141.25;;;31.98;15.01
79686;BME280;69153;47.918;11.428;2024-02-16T11:42:37;95147.81;;;31.77;15.16
79686;BME280;69153;47.918;11.428;2024-02-16T11:45:03;95137.97;;;31.99;15.70
79686;BME280;69153;47.918;11.428;2024-02-16T11:47:28;95143.03;;;31.45;15.66
79686;BME280;69153;47.918;11.428;2024-02-16T11:50:08;95143.28;;;31.72;15.92
79686;BME280;69153;47.918;11.428;2024-02-16T11:52:41;95148.69;;;31.07;16.10
79686;BME280;69153;47.918;11.428;2024-02-16T11:55:10;95142.03;;;29.41;17.60
79686;BME280;69153;47.918;11.428;2024-02-16T11:57:38;95140.84;;;30.10;17.38
79686;BME280;69153;47.918;11.428;2024-02-16T12:00:04;95139.56;;;30.19;17.61
79686;BME280;69153;47.918;11.428;2024-02-16T12:02:34;95146.28;;;29.72;17.86
79686;BME280;69153;47.918;11.428;2024-02-16T12:05:01;95141.56;;;29.22;18.38
79686;BME280;69153;47.918;11.428;2024-02-16T12:07:27;95145.00;;;29.14;18.47
79686;BME280;69153;47.918;11.428;2024-02-16T12:10:01;95139.28;;;28.33;19.61
79686;BME280;69153;47.918;11.428;2024-02-16T12:12:26;95143.97;;;28.25;19.93
79686;BME280;69153;47.918;11.428;2024-02-16T12:14:53;95142.72;;;27.84;20.48
79686;BME280;69153;47.918;11.428;2024-02-16T12:17:19;95145.94;;;26.94;21.08
79686;BME280;69153;47.918;11.428;2024-02-16T12:19:45;95143.50;;;26.77;21.38
79686;BME280;69153;47.918;11.428;2024-02-16T12:22:22;95144.47;;;26.93;21.29
79686;BME280;69153;47.918;11.428;2024-02-16T12:24:49;95147.13;;;27.19;21.26
79686;BME280;69153;47.918;11.428;2024-02-16T12:27:15;95151.25;;;26.99;22.14
79686;BME280;69153;47.918;11.428;2024-02-16T12:29:41;95149.97;;;25.76;23.59
79686;BME280;69153;47.918;11.428;2024-02-16T12:32:07;95147.88;;;25.13;24.59
79686;BME280;69153;47.918;11.428;2024-02-16T12:34:35;95143.34;;;24.59;25.32
79686;BME280;69153;47.918;11.428;2024-02-16T12:37:06;95145.44;;;24.47;25.67
79686;BME280;69153;47.918;11.428;2024-02-16T12:39:33;95145.28;;;24.40;25.63
79686;BME280;69153;47.918;11.428;2024-02-16T12:41:59;95147.66;;;24.19;26.07
79686;BME280;69153;47.918;11.428;2024-02-16T12:44:25;95139.63;;;24.08;26.65
79686;BME280;69153;47.918;11.428;2024-02-16T12:46:50;95147.25;;;24.09;26.35
79686;BME280;69153;47.918;11.428;2024-02-16T12:49:15;95143.69;;;23.96;26.80
79686;BME280;69153;47.918;11.428;2024-02-16T12:51:41;95155.00;;;23.94;27.04
79686;BME280;69153;47.918;11.428;2024-02-16T12:54:07;95150.59;;;23.61;27.08
79686;BME280;69153;47.918;11.428;2024-02-16T12:56:33;95145.69;;;23.19;27.43
79686;BME280;69153;47.918;11.428;2024-02-16T12:58:58;95136.84;;;23.12;28.15